Albertville, Minnesota
Current Conditions -  °F | °C
As of 5:54 PM on Saturday 22 Nov 2014 (Local Time) from KCFE Reporting Station
Haze Haze  
Wind Chill: -3°   Ceiling: 300
Heat Index:   Visibility: 2.5mi
Dew Point:   Wind: 8mph
Humidity: 95%   Direction: 130°SE
Pressure: 29.59"   Gusts: NA
Location:  45.24°N, 93.65°W
Report Text: KCFE 222354Z AUTO 13007KT 2 1/2SM BR OVC003 01/00 A2959 RMK AO2 T00100003
Loading
Personal Weather Stations






























Interactive Weather Map New forecast layout! Learn more

10-Day Weather Forecast

Advertisements
Track Severe Weather on mobile